sensor_id;sensor_type;location;lat;lon;timestamp;temperature;humidity
4314;DHT22;2170;48.794;9.182;2023-06-24T00:02:22;18.50;99.90
4314;DHT22;2170;48.794;9.182;2023-06-24T00:04:50;18.40;99.90
4314;DHT22;2170;48.794;9.182;2023-06-24T00:07:19;18.40;99.90
4314;DHT22;2170;48.794;9.182;2023-06-24T00:09:52;18.40;99.90
4314;DHT22;2170;48.794;9.182;2023-06-24T00:12:20;18.40;99.90
4314;DHT22;2170;48.794;9.182;2023-06-24T00:14:49;18.40;99.90
4314;DHT22;2170;48.794;9.182;2023-06-24T00:17:17;18.20;99.90
4314;DHT22;2170;48.794;9.182;2023-06-24T00:19:47;18.20;99.90
4314;DHT22;2170;48.794;9.182;2023-06-24T00:22:15;18.20;99.90
4314;DHT22;2170;48.794;9.182;2023-06-24T00:24:44;18.20;99.90
4314;DHT22;2170;48.794;9.182;2023-06-24T00:27:14;18.20;99.90
4314;DHT22;2170;48.794;9.182;2023-06-24T00:29:43;18.10;99.90
4314;DHT22;2170;48.794;9.182;2023-06-24T00:32:11;18.10;99.90
4314;DHT22;2170;48.794;9.182;2023-06-24T00:34:39;18.10;99.90
4314;DHT22;2170;48.794;9.182;2023-06-24T00:37:09;18.10;99.90
4314;DHT22;2170;48.794;9.182;2023-06-24T00:39:38;18.10;99.90
4314;DHT22;2170;48.794;9.182;2023-06-24T00:42:09;18.10;99.90
4314;DHT22;2170;48.794;9.182;2023-06-24T00:44:39;18.00;99.90
4314;DHT22;2170;48.794;9.182;2023-06-24T00:47:21;18.00;99.90
4314;DHT22;2170;48.794;9.182;2023-06-24T00:50:23;17.90;99.90
4314;DHT22;2170;48.794;9.182;2023-06-24T00:52:58;17.80;99.90
4314;DHT22;2170;48.794;9.182;2023-06-24T00:55:29;17.70;99.90
4314;DHT22;2170;48.794;9.182;2023-06-24T00:58:00;17.60;99.90
4314;DHT22;2170;48.794;9.182;2023-06-24T01:00:34;17.60;99.90
4314;DHT22;2170;48.794;9.182;2023-06-24T01:03:05;17.60;99.90
4314;DHT22;2170;48.794;9.182;2023-06-24T01:05:33;17.60;99.90
4314;DHT22;2170;48.794;9.182;2023-06-24T01:08:03;17.60;99.90
4314;DHT22;2170;48.794;9.182;2023-06-24T01:10:33;17.60;99.90
4314;DHT22;2170;48.794;9.182;2023-06-24T01:13:02;17.50;99.90
4314;DHT22;2170;48.794;9.182;2023-06-24T01:15:36;17.50;99.90
4314;DHT22;2170;48.794;9.182;2023-06-24T01:18:08;17.50;99.90
4314;DHT22;2170;48.794;9.182;2023-06-24T01:20:47;17.40;99.90
4314;DHT22;2170;48.794;9.182;2023-06-24T01:26:32;17.30;99.90
4314;DHT22;2170;48.794;9.182;2023-06-24T01:29:42;17.40;99.90
4314;DHT22;2170;48.794;9.182;2023-06-24T01:32:25;17.40;99.90
4314;DHT22;2170;48.794;9.182;2023-06-24T01:34:59;17.40;99.90
4314;DHT22;2170;48.794;9.182;2023-06-24T01:37:45;17.30;99.90
4314;DHT22;2170;48.794;9.182;2023-06-24T01:40:28;17.40;99.90
4314;DHT22;2170;48.794;9.182;2023-06-24T01:43:10;17.40;99.90
4314;DHT22;2170;48.794;9.182;2023-06-24T01:45:44;17.40;99.90
4314;DHT22;2170;48.794;9.182;2023-06-24T01:48:18;17.40;99.90
4314;DHT22;2170;48.794;9.182;2023-06-24T01:50:59;17.40;99.90
4314;DHT22;2170;48.794;9.182;2023-06-24T01:53:29;17.40;99.90
4314;DHT22;2170;48.794;9.182;2023-06-24T01:56:05;17.40;99.90
4314;DHT22;2170;48.794;9.182;2023-06-24T01:58:39;17.40;99.90
4314;DHT22;2170;48.794;9.182;2023-06-24T02:01:09;17.40;99.90
4314;DHT22;2170;48.794;9.182;2023-06-24T02:03:41;17.40;99.90
4314;DHT22;2170;48.794;9.182;2023-06-24T02:06:12;17.40;99.90
4314;DHT22;2170;48.794;9.182;2023-06-24T02:08:43;17.30;99.90
4314;DHT22;2170;48.794;9.182;2023-06-24T02:11:13;17.30;99.90
4314;DHT22;2170;48.794;9.182;2023-06-24T02:13:46;17.20;99.90
4314;DHT22;2170;48.794;9.182;2023-06-24T02:16:19;17.20;99.90
4314;DHT22;2170;48.794;9.182;2023-06-24T02:19:12;17.10;99.90
4314;DHT22;2170;48.794;9.182;2023-06-24T02:21:45;17.10;99.90
4314;DHT22;2170;48.794;9.182;2023-06-24T02:24:14;17.00;99.90
4314;DHT22;2170;48.794;9.182;2023-06-24T02:26:51;17.00;99.90
4314;DHT22;2170;48.794;9.182;2023-06-24T02:29:21;17.00;99.90
4314;DHT22;2170;48.794;9.182;2023-06-24T02:31:53;16.90;99.90
4314;DHT22;2170;48.794;9.182;2023-06-24T02:34:27;17.00;99.90
4314;DHT22;2170;48.794;9.182;2023-06-24T02:36:57;16.90;99.90
4314;DHT22;2170;48.794;9.182;2023-06-24T02:39:38;16.90;99.90
4314;DHT22;2170;48.794;9.182;2023-06-24T02:42:16;16.40;99.90
4314;DHT22;2170;48.794;9.182;2023-06-24T02:44:46;16.80;99.90
4314;DHT22;2170;48.794;9.182;2023-06-24T02:47:22;16.80;99.90
4314;DHT22;2170;48.794;9.182;2023-06-24T02:49:59;16.80;99.90
4314;DHT22;2170;48.794;9.182;2023-06-24T02:52:29;16.80;99.90
4314;DHT22;2170;48.794;9.182;2023-06-24T02:54:57;16.80;99.90
4314;DHT22;2170;48.794;9.182;2023-06-24T02:57:28;16.70;99.90
4314;DHT22;2170;48.794;9.182;2023-06-24T03:00:04;16.70;99.90
4314;DHT22;2170;48.794;9.182;2023-06-24T03:02:35;16.70;99.90
4314;DHT22;2170;48.794;9.182;2023-06-24T03:05:06;16.70;99.90
4314;DHT22;2170;48.794;9.182;2023-06-24T03:07:37;16.60;99.90
4314;DHT22;2170;48.794;9.182;2023-06-24T03:10:07;16.60;99.90
4314;DHT22;2170;48.794;9.182;2023-06-24T03:12:42;16.60;99.90
4314;DHT22;2170;48.794;9.182;2023-06-24T03:15:21;16.60;99.90
4314;DHT22;2170;48.794;9.182;2023-06-24T03:17:52;16.50;99.90
4314;DHT22;2170;48.794;9.182;2023-06-24T03:20:30;16.50;99.90
4314;DHT22;2170;48.794;9.182;2023-06-24T03:23:06;16.50;99.90
4314;DHT22;2170;48.794;9.182;2023-06-24T03:25:40;16.40;99.90
4314;DHT22;2170;48.794;9.182;2023-06-24T03:28:09;16.40;99.90
4314;DHT22;2170;48.794;9.182;2023-06-24T03:30:38;16.40;99.90
4314;DHT22;2170;48.794;9.182;2023-06-24T03:33:08;16.40;99.90
4314;DHT22;2170;48.794;9.182;2023-06-24T03:35:39;16.40;99.90
4314;DHT22;2170;48.794;9.182;2023-06-24T03:38:09;16.40;99.90
4314;DHT22;2170;48.794;9.182;2023-06-24T03:40:41;16.20;99.90
4314;DHT22;2170;48.794;9.182;2023-06-24T03:43:10;16.40;99.90
4314;DHT22;2170;48.794;9.182;2023-06-24T03:45:44;16.40;99.90
4314;DHT22;2170;48.794;9.182;2023-06-24T03:48:26;16.30;99.90
4314;DHT22;2170;48.794;9.182;2023-06-24T03:50:59;16.30;99.90
4314;DHT22;2170;48.794;9.182;2023-06-24T03:53:27;16.30;99.90
4314;DHT22;2170;48.794;9.182;2023-06-24T03:56:02;16.20;99.90
4314;DHT22;2170;48.794;9.182;2023-06-24T03:58:31;16.20;99.90
4314;DHT22;2170;48.794;9.182;2023-06-24T04:01:01;16.20;99.90
4314;DHT22;2170;48.794;9.182;2023-06-24T04:03:30;16.20;99.90
4314;DHT22;2170;48.794;9.182;2023-06-24T04:05:59;16.30;99.90
4314;DHT22;2170;48.794;9.182;2023-06-24T04:08:28;16.30;99.90
4314;DHT22;2170;48.794;9.182;2023-06-24T04:10:56;16.30;99.90
4314;DHT22;2170;48.794;9.182;2023-06-24T04:13:26;16.30;99.90
4314;DHT22;2170;48.794;9.182;2023-06-24T04:15:53;16.40;99.90
4314;DHT22;2170;48.794;9.182;2023-06-24T04:18:22;16.50;99.90
4314;DHT22;2170;48.794;9.182;2023-06-24T04:20:50;16.50;99.90
4314;DHT22;2170;48.794;9.182;2023-06-24T04:23:35;16.50;99.90
4314;DHT22;2170;48.794;9.182;2023-06-24T04:26:30;16.60;99.90
4314;DHT22;2170;48.794;9.182;2023-06-24T04:29:00;16.60;99.90
4314;DHT22;2170;48.794;9.182;2023-06-24T04:31:31;16.90;99.90
4314;DHT22;2170;48.794;9.182;2023-06-24T04:34:03;16.70;99.90
4314;DHT22;2170;48.794;9.182;2023-06-24T04:36:36;16.70;99.90
4314;DHT22;2170;48.794;9.182;2023-06-24T04:39:07;16.80;99.90
4314;DHT22;2170;48.794;9.182;2023-06-24T04:41:38;16.80;99.90
4314;DHT22;2170;48.794;9.182;2023-06-24T04:44:08;16.80;99.90
4314;DHT22;2170;48.794;9.182;2023-06-24T04:46:38;16.80;99.90
4314;DHT22;2170;48.794;9.182;2023-06-24T04:49:12;16.90;99.90
4314;DHT22;2170;48.794;9.182;2023-06-24T04:51:46;16.90;99.90
4314;DHT22;2170;48.794;9.182;2023-06-24T04:54:19;17.00;99.90
4314;DHT22;2170;48.794;9.182;2023-06-24T04:56:55;17.10;99.90
4314;DHT22;2170;48.794;9.182;2023-06-24T04:59:24;17.10;99.90
4314;DHT22;2170;48.794;9.182;2023-06-24T05:01:54;17.20;99.90
4314;DHT22;2170;48.794;9.182;2023-06-24T05:04:23;17.20;99.90
4314;DHT22;2170;48.794;9.182;2023-06-24T05:06:54;17.00;99.90
4314;DHT22;2170;48.794;9.182;2023-06-24T05:09:29;17.40;99.90
4314;DHT22;2170;48.794;9.182;2023-06-24T05:12:00;17.40;99.90
4314;DHT22;2170;48.794;9.182;2023-06-24T05:20:37;17.70;99.90
4314;DHT22;2170;48.794;9.182;2023-06-24T05:23:14;17.90;99.90
4314;DHT22;2170;48.794;9.182;2023-06-24T05:25:47;17.70;99.90
4314;DHT22;2170;48.794;9.182;2023-06-24T05:28:22;18.10;99.90
4314;DHT22;2170;48.794;9.182;2023-06-24T05:30:50;18.20;99.90
4314;DHT22;2170;48.794;9.182;2023-06-24T05:33:19;18.30;99.90
4314;DHT22;2170;48.794;9.182;2023-06-24T05:35:48;18.30;99.90
4314;DHT22;2170;48.794;9.182;2023-06-24T05:38:20;18.50;99.90
4314;DHT22;2170;48.794;9.182;2023-06-24T05:40:53;18.60;99.90
4314;DHT22;2170;48.794;9.182;2023-06-24T05:43:21;18.70;99.90
4314;DHT22;2170;48.794;9.182;2023-06-24T05:45:52;18.80;99.90
4314;DHT22;2170;48.794;9.182;2023-06-24T05:48:20;18.90;99.90
4314;DHT22;2170;48.794;9.182;2023-06-24T05:50:49;18.90;99.90
4314;DHT22;2170;48.794;9.182;2023-06-24T05:53:17;19.00;99.90
4314;DHT22;2170;48.794;9.182;2023-06-24T05:55:49;19.10;99.90
4314;DHT22;2170;48.794;9.182;2023-06-24T05:58:19;19.20;99.90
4314;DHT22;2170;48.794;9.182;2023-06-24T06:00:48;19.40;99.90
4314;DHT22;2170;48.794;9.182;2023-06-24T06:03:16;19.40;99.90
4314;DHT22;2170;48.794;9.182;2023-06-24T06:05:45;19.50;99.90
4314;DHT22;2170;48.794;9.182;2023-06-24T06:08:14;19.60;99.90
4314;DHT22;2170;48.794;9.182;2023-06-24T06:10:42;19.60;99.90
4314;DHT22;2170;48.794;9.182;2023-06-24T06:13:10;19.70;99.90
4314;DHT22;2170;48.794;9.182;2023-06-24T06:15:40;19.90;99.90
4314;DHT22;2170;48.794;9.182;2023-06-24T06:18:15;20.10;99.90
4314;DHT22;2170;48.794;9.182;2023-06-24T06:20:44;20.20;99.90
4314;DHT22;2170;48.794;9.182;2023-06-24T06:23:13;20.30;99.90
4314;DHT22;2170;48.794;9.182;2023-06-24T06:25:42;20.40;99.90
4314;DHT22;2170;48.794;9.182;2023-06-24T06:28:10;20.60;99.90
4314;DHT22;2170;48.794;9.182;2023-06-24T06:30:39;20.60;99.90
4314;DHT22;2170;48.794;9.182;2023-06-24T06:33:07;20.70;99.90
4314;DHT22;2170;48.794;9.182;2023-06-24T06:35:38;20.80;99.90
4314;DHT22;2170;48.794;9.182;2023-06-24T06:38:06;20.90;99.90
4314;DHT22;2170;48.794;9.182;2023-06-24T06:40:35;20.90;99.90
4314;DHT22;2170;48.794;9.182;2023-06-24T06:43:03;21.00;99.90
4314;DHT22;2170;48.794;9.182;2023-06-24T06:45:32;21.10;99.90
4314;DHT22;2170;48.794;9.182;2023-06-24T06:48:02;21.10;99.90
4314;DHT22;2170;48.794;9.182;2023-06-24T06:50:34;21.20;99.90
4314;DHT22;2170;48.794;9.182;2023-06-24T06:53:11;21.30;99.90
4314;DHT22;2170;48.794;9.182;2023-06-24T06:55:42;21.50;99.90
4314;DHT22;2170;48.794;9.182;2023-06-24T06:58:21;21.50;99.90
4314;DHT22;2170;48.794;9.182;2023-06-24T07:00:53;21.70;99.90
4314;DHT22;2170;48.794;9.182;2023-06-24T07:03:39;21.70;99.90
4314;DHT22;2170;48.794;9.182;2023-06-24T07:06:08;21.90;99.90
4314;DHT22;2170;48.794;9.182;2023-06-24T07:08:36;21.90;99.90
4314;DHT22;2170;48.794;9.182;2023-06-24T07:11:04;22.00;99.90
4314;DHT22;2170;48.794;9.182;2023-06-24T07:13:35;22.00;99.90
4314;DHT22;2170;48.794;9.182;2023-06-24T07:16:04;22.20;99.90
4314;DHT22;2170;48.794;9.182;2023-06-24T07:18:35;22.20;99.90
4314;DHT22;2170;48.794;9.182;2023-06-24T07:21:04;22.30;99.90
4314;DHT22;2170;48.794;9.182;2023-06-24T07:23:32;22.30;99.90
4314;DHT22;2170;48.794;9.182;2023-06-24T07:26:01;22.30;99.90
4314;DHT22;2170;48.794;9.182;2023-06-24T07:28:30;22.40;99.90
4314;DHT22;2170;48.794;9.182;2023-06-24T07:30:58;22.50;99.90
4314;DHT22;2170;48.794;9.182;2023-06-24T07:33:27;22.60;99.90
4314;DHT22;2170;48.794;9.182;2023-06-24T07:35:59;22.70;99.90
4314;DHT22;2170;48.794;9.182;2023-06-24T07:38:29;22.70;99.90
4314;DHT22;2170;48.794;9.182;2023-06-24T07:40:58;22.90;99.90
4314;DHT22;2170;48.794;9.182;2023-06-24T07:43:26;23.00;99.90
4314;DHT22;2170;48.794;9.182;2023-06-24T07:45:54;23.10;99.90
4314;DHT22;2170;48.794;9.182;2023-06-24T07:48:23;23.10;99.90
4314;DHT22;2170;48.794;9.182;2023-06-24T07:50:51;23.20;99.90
4314;DHT22;2170;48.794;9.182;2023-06-24T07:53:21;23.30;99.90
4314;DHT22;2170;48.794;9.182;2023-06-24T07:55:50;23.30;99.90
4314;DHT22;2170;48.794;9.182;2023-06-24T07:58:18;23.30;99.90
4314;DHT22;2170;48.794;9.182;2023-06-24T08:00:49;23.10;99.90
4314;DHT22;2170;48.794;9.182;2023-06-24T08:03:19;23.00;99.90
4314;DHT22;2170;48.794;9.182;2023-06-24T08:05:48;23.10;99.90
4314;DHT22;2170;48.794;9.182;2023-06-24T08:08:16;23.10;99.90
4314;DHT22;2170;48.794;9.182;2023-06-24T08:10:49;23.40;99.90
4314;DHT22;2170;48.794;9.182;2023-06-24T08:13:17;23.50;99.90
4314;DHT22;2170;48.794;9.182;2023-06-24T08:15:46;23.30;99.90
4314;DHT22;2170;48.794;9.182;2023-06-24T08:18:16;23.50;99.90
4314;DHT22;2170;48.794;9.182;2023-06-24T08:20:48;23.70;99.90
4314;DHT22;2170;48.794;9.182;2023-06-24T08:23:20;23.90;99.90
4314;DHT22;2170;48.794;9.182;2023-06-24T08:25:50;24.10;99.90
4314;DHT22;2170;48.794;9.182;2023-06-24T08:28:22;24.10;99.90
4314;DHT22;2170;48.794;9.182;2023-06-24T08:30:51;24.30;99.90
4314;DHT22;2170;48.794;9.182;2023-06-24T08:33:20;24.40;99.90
4314;DHT22;2170;48.794;9.182;2023-06-24T08:35:49;24.30;99.90
4314;DHT22;2170;48.794;9.182;2023-06-24T08:38:17;24.40;99.90
4314;DHT22;2170;48.794;9.182;2023-06-24T08:40:46;24.50;99.90
4314;DHT22;2170;48.794;9.182;2023-06-24T08:43:20;24.60;99.90
4314;DHT22;2170;48.794;9.182;2023-06-24T08:45:50;24.50;99.90
4314;DHT22;2170;48.794;9.182;2023-06-24T08:48:36;24.30;99.90
4314;DHT22;2170;48.794;9.182;2023-06-24T08:51:08;24.40;99.90
4314;DHT22;2170;48.794;9.182;2023-06-24T08:53:41;24.80;99.90
4314;DHT22;2170;48.794;9.182;2023-06-24T08:56:11;25.10;99.90
4314;DHT22;2170;48.794;9.182;2023-06-24T08:58:41;25.40;99.90
4314;DHT22;2170;48.794;9.182;2023-06-24T09:01:12;25.60;99.90
4314;DHT22;2170;48.794;9.182;2023-06-24T09:03:41;25.70;99.90
4314;DHT22;2170;48.794;9.182;2023-06-24T09:06:10;25.80;99.90
4314;DHT22;2170;48.794;9.182;2023-06-24T09:08:53;26.00;99.90
4314;DHT22;2170;48.794;9.182;2023-06-24T09:11:28;26.20;99.90
4314;DHT22;2170;48.794;9.182;2023-06-24T09:14:01;26.20;99.90
4314;DHT22;2170;48.794;9.182;2023-06-24T09:16:29;26.10;99.90
4314;DHT22;2170;48.794;9.182;2023-06-24T09:18:58;26.20;99.90
4314;DHT22;2170;48.794;9.182;2023-06-24T09:21:30;26.20;99.90
4314;DHT22;2170;48.794;9.182;2023-06-24T09:24:02;26.30;99.90
4314;DHT22;2170;48.794;9.182;2023-06-24T09:26:31;26.30;99.90
4314;DHT22;2170;48.794;9.182;2023-06-24T09:29:02;26.30;99.90
4314;DHT22;2170;48.794;9.182;2023-06-24T09:31:33;25.90;99.90
4314;DHT22;2170;48.794;9.182;2023-06-24T09:34:02;26.40;99.90
4314;DHT22;2170;48.794;9.182;2023-06-24T09:36:35;26.70;99.90
4314;DHT22;2170;48.794;9.182;2023-06-24T09:39:06;27.10;99.90
4314;DHT22;2170;48.794;9.182;2023-06-24T09:41:36;27.50;99.60
4314;DHT22;2170;48.794;9.182;2023-06-24T09:44:11;27.80;98.80
4314;DHT22;2170;48.794;9.182;2023-06-24T09:46:41;28.00;97.20
4314;DHT22;2170;48.794;9.182;2023-06-24T09:49:12;28.00;96.50
4314;DHT22;2170;48.794;9.182;2023-06-24T09:51:44;28.00;96.50
4314;DHT22;2170;48.794;9.182;2023-06-24T09:54:16;28.00;96.30
4314;DHT22;2170;48.794;9.182;2023-06-24T09:56:50;28.20;96.20
4314;DHT22;2170;48.794;9.182;2023-06-24T09:59:25;28.10;94.90
4314;DHT22;2170;48.794;9.182;2023-06-24T10:01:57;28.20;95.20
4314;DHT22;2170;48.794;9.182;2023-06-24T10:07:26;28.40;91.90
4314;DHT22;2170;48.794;9.182;2023-06-24T10:09:57;28.60;90.90
4314;DHT22;2170;48.794;9.182;2023-06-24T10:12:26;28.60;91.50
4314;DHT22;2170;48.794;9.182;2023-06-24T10:14:56;28.70;92.00
4314;DHT22;2170;48.794;9.182;2023-06-24T10:17:24;28.70;91.40
4314;DHT22;2170;48.794;9.182;2023-06-24T10:19:53;28.50;91.50
4314;DHT22;2170;48.794;9.182;2023-06-24T10:22:23;28.80;90.70
4314;DHT22;2170;48.794;9.182;2023-06-24T10:24:52;29.20;90.60
4314;DHT22;2170;48.794;9.182;2023-06-24T10:27:23;29.20;90.40
4314;DHT22;2170;48.794;9.182;2023-06-24T10:29:55;29.60;90.20
4314;DHT22;2170;48.794;9.182;2023-06-24T10:32:25;29.70;89.60
4314;DHT22;2170;48.794;9.182;2023-06-24T10:35:11;29.70;88.60
4314;DHT22;2170;48.794;9.182;2023-06-24T10:38:00;30.10;86.30
4314;DHT22;2170;48.794;9.182;2023-06-24T10:40:50;30.10;84.10
4314;DHT22;2170;48.794;9.182;2023-06-24T10:43:38;30.00;80.70
4314;DHT22;2170;48.794;9.182;2023-06-24T10:46:15;29.10;81.30
4314;DHT22;2170;48.794;9.182;2023-06-24T10:48:43;29.30;81.20
4314;DHT22;2170;48.794;9.182;2023-06-24T10:51:12;30.10;78.80
4314;DHT22;2170;48.794;9.182;2023-06-24T10:53:43;30.40;77.20
4314;DHT22;2170;48.794;9.182;2023-06-24T10:56:11;30.90;76.10
4314;DHT22;2170;48.794;9.182;2023-06-24T10:58:40;30.70;73.80
4314;DHT22;2170;48.794;9.182;2023-06-24T11:01:17;30.20;73.70
4314;DHT22;2170;48.794;9.182;2023-06-24T11:03:46;30.30;72.20
4314;DHT22;2170;48.794;9.182;2023-06-24T11:06:14;30.40;70.60
4314;DHT22;2170;48.794;9.182;2023-06-24T11:08:46;30.40;70.10
4314;DHT22;2170;48.794;9.182;2023-06-24T11:11:21;30.60;69.90
4314;DHT22;2170;48.794;9.182;2023-06-24T11:13:50;30.90;68.60
4314;DHT22;2170;48.794;9.182;2023-06-24T11:16:30;29.90;69.70
4314;DHT22;2170;48.794;9.182;2023-06-24T11:19:01;30.10;70.10
4314;DHT22;2170;48.794;9.182;2023-06-24T11:21:31;30.60;70.00
4314;DHT22;2170;48.794;9.182;2023-06-24T11:24:02;30.90;68.60
4314;DHT22;2170;48.794;9.182;2023-06-24T11:26:40;31.00;69.40
4314;DHT22;2170;48.794;9.182;2023-06-24T11:29:15;31.00;68.50
4314;DHT22;2170;48.794;9.182;2023-06-24T11:31:47;30.40;69.50
4314;DHT22;2170;48.794;9.182;2023-06-24T11:34:17;30.80;69.90
4314;DHT22;2170;48.794;9.182;2023-06-24T11:36:49;31.20;68.70
4314;DHT22;2170;48.794;9.182;2023-06-24T11:39:21;31.60;67.60
4314;DHT22;2170;48.794;9.182;2023-06-24T11:41:51;31.80;66.90
4314;DHT22;2170;48.794;9.182;2023-06-24T11:44:20;31.80;65.70
4314;DHT22;2170;48.794;9.182;2023-06-24T11:46:51;31.20;64.20
4314;DHT22;2170;48.794;9.182;2023-06-24T11:49:20;31.70;65.20
4314;DHT22;2170;48.794;9.182;2023-06-24T11:51:58;31.70;62.70
4314;DHT22;2170;48.794;9.182;2023-06-24T12:04:46;32.60;60.80
4314;DHT22;2170;48.794;9.182;2023-06-24T12:07:26;32.60;60.80
4314;DHT22;2170;48.794;9.182;2023-06-24T12:10:11;31.70;61.70
4314;DHT22;2170;48.794;9.182;2023-06-24T12:12:57;32.50;60.80
4314;DHT22;2170;48.794;9.182;2023-06-24T12:15:27;33.00;60.50
4314;DHT22;2170;48.794;9.182;2023-06-24T12:17:56;32.00;60.50
4314;DHT22;2170;48.794;9.182;2023-06-24T12:20:31;32.20;60.00
4314;DHT22;2170;48.794;9.182;2023-06-24T12:23:09;32.10;59.40
4314;DHT22;2170;48.794;9.182;2023-06-24T12:25:46;31.30;61.00
4314;DHT22;2170;48.794;9.182;2023-06-24T12:28:17;32.30;60.60
4314;DHT22;2170;48.794;9.182;2023-06-24T12:30:55;32.70;59.60
4314;DHT22;2170;48.794;9.182;2023-06-24T12:33:27;32.70;58.90
4314;DHT22;2170;48.794;9.182;2023-06-24T12:36:04;33.10;58.50
4314;DHT22;2170;48.794;9.182;2023-06-24T12:38:37;33.30;58.70
4314;DHT22;2170;48.794;9.182;2023-06-24T12:41:15;33.60;58.20
4314;DHT22;2170;48.794;9.182;2023-06-24T12:43:44;33.00;57.60
4314;DHT22;2170;48.794;9.182;2023-06-24T12:46:15;33.50;57.10
4314;DHT22;2170;48.794;9.182;2023-06-24T12:48:43;33.10;56.70
4314;DHT22;2170;48.794;9.182;2023-06-24T12:51:20;33.10;56.80
4314;DHT22;2170;48.794;9.182;2023-06-24T12:53:56;33.40;57.30
4314;DHT22;2170;48.794;9.182;2023-06-24T12:57:01;33.70;56.10
4314;DHT22;2170;48.794;9.182;2023-06-24T12:59:50;34.00;55.80
4314;DHT22;2170;48.794;9.182;2023-06-24T13:05:39;34.40;54.20
4314;DHT22;2170;48.794;9.182;2023-06-24T13:08:26;33.90;54.40
4314;DHT22;2170;48.794;9.182;2023-06-24T13:11:16;33.70;54.40
4314;DHT22;2170;48.794;9.182;2023-06-24T13:13:59;33.30;55.80
4314;DHT22;2170;48.794;9.182;2023-06-24T13:16:50;33.90;54.20
4314;DHT22;2170;48.794;9.182;2023-06-24T13:19:20;34.10;52.20
4314;DHT22;2170;48.794;9.182;2023-06-24T13:22:20;33.10;53.20
4314;DHT22;2170;48.794;9.182;2023-06-24T13:25:04;32.70;55.00
4314;DHT22;2170;48.794;9.182;2023-06-24T13:27:33;32.40;56.30
4314;DHT22;2170;48.794;9.182;2023-06-24T13:30:02;33.00;55.30
4314;DHT22;2170;48.794;9.182;2023-06-24T13:32:33;33.10;55.40
4314;DHT22;2170;48.794;9.182;2023-06-24T13:35:02;33.10;55.40
4314;DHT22;2170;48.794;9.182;2023-06-24T13:37:35;33.60;54.90
4314;DHT22;2170;48.794;9.182;2023-06-24T13:40:08;33.20;54.40
4314;DHT22;2170;48.794;9.182;2023-06-24T13:42:37;33.40;54.40
4314;DHT22;2170;48.794;9.182;2023-06-24T13:45:16;33.80;54.00
4314;DHT22;2170;48.794;9.182;2023-06-24T13:48:02;33.90;53.10
4314;DHT22;2170;48.794;9.182;2023-06-24T13:50:32;32.50;53.80
4314;DHT22;2170;48.794;9.182;2023-06-24T13:53:19;33.20;53.80
4314;DHT22;2170;48.794;9.182;2023-06-24T13:56:12;34.10;52.80
4314;DHT22;2170;48.794;9.182;2023-06-24T13:58:45;34.40;52.10
4314;DHT22;2170;48.794;9.182;2023-06-24T14:01:21;35.00;52.20
4314;DHT22;2170;48.794;9.182;2023-06-24T14:03:57;34.60;52.30
4314;DHT22;2170;48.794;9.182;2023-06-24T14:06:29;34.40;52.30
4314;DHT22;2170;48.794;9.182;2023-06-24T14:08:58;34.60;51.50
4314;DHT22;2170;48.794;9.182;2023-06-24T14:11:28;34.40;51.70
4314;DHT22;2170;48.794;9.182;2023-06-24T14:13:57;34.30;51.80
4314;DHT22;2170;48.794;9.182;2023-06-24T14:16:26;33.30;53.00
4314;DHT22;2170;48.794;9.182;2023-06-24T14:19:01;33.20;52.80
4314;DHT22;2170;48.794;9.182;2023-06-24T14:21:30;32.80;53.90
4314;DHT22;2170;48.794;9.182;2023-06-24T14:24:04;33.30;53.30
4314;DHT22;2170;48.794;9.182;2023-06-24T14:26:55;33.20;53.40
4314;DHT22;2170;48.794;9.182;2023-06-24T14:29:30;33.40;53.40
4314;DHT22;2170;48.794;9.182;2023-06-24T14:32:06;32.10;53.60
4314;DHT22;2170;48.794;9.182;2023-06-24T14:34:43;32.40;54.20
4314;DHT22;2170;48.794;9.182;2023-06-24T14:37:16;33.10;53.40
4314;DHT22;2170;48.794;9.182;2023-06-24T14:39:49;33.60;52.80
4314;DHT22;2170;48.794;9.182;2023-06-24T14:42:30;32.70;54.10
4314;DHT22;2170;48.794;9.182;2023-06-24T14:45:02;33.40;54.20
4314;DHT22;2170;48.794;9.182;2023-06-24T14:47:39;34.00;52.50
4314;DHT22;2170;48.794;9.182;2023-06-24T14:50:12;34.10;52.00
4314;DHT22;2170;48.794;9.182;2023-06-24T14:52:42;33.70;51.80
4314;DHT22;2170;48.794;9.182;2023-06-24T14:55:10;33.60;51.90
4314;DHT22;2170;48.794;9.182;2023-06-24T14:57:42;34.00;52.00
4314;DHT22;2170;48.794;9.182;2023-06-24T15:00:17;34.20;51.80
4314;DHT22;2170;48.794;9.182;2023-06-24T15:02:49;34.60;51.30
4314;DHT22;2170;48.794;9.182;2023-06-24T15:05:20;34.70;50.30
4314;DHT22;2170;48.794;9.182;2023-06-24T15:07:49;34.70;50.20
4314;DHT22;2170;48.794;9.182;2023-06-24T15:10:20;34.40;51.10
4314;DHT22;2170;48.794;9.182;2023-06-24T15:12:50;34.50;51.20
4314;DHT22;2170;48.794;9.182;2023-06-24T15:15:19;33.90;51.00
4314;DHT22;2170;48.794;9.182;2023-06-24T15:17:49;33.40;52.80
4314;DHT22;2170;48.794;9.182;2023-06-24T15:20:21;33.10;53.30
4314;DHT22;2170;48.794;9.182;2023-06-24T15:22:51;33.50;52.20
4314;DHT22;2170;48.794;9.182;2023-06-24T15:25:24;33.20;51.90
4314;DHT22;2170;48.794;9.182;2023-06-24T15:28:00;33.30;51.80
4314;DHT22;2170;48.794;9.182;2023-06-24T15:30:44;34.00;51.80
4314;DHT22;2170;48.794;9.182;2023-06-24T15:33:18;33.80;50.40
4314;DHT22;2170;48.794;9.182;2023-06-24T15:35:59;34.20;50.60
4314;DHT22;2170;48.794;9.182;2023-06-24T15:38:43;34.10;51.20
4314;DHT22;2170;48.794;9.182;2023-06-24T15:41:14;33.70;51.60
4314;DHT22;2170;48.794;9.182;2023-06-24T15:43:50;32.80;53.10
4314;DHT22;2170;48.794;9.182;2023-06-24T15:46:24;32.70;53.00
4314;DHT22;2170;48.794;9.182;2023-06-24T15:48:52;32.20;53.10
4314;DHT22;2170;48.794;9.182;2023-06-24T15:51:23;31.90;54.00
4314;DHT22;2170;48.794;9.182;2023-06-24T15:53:52;31.90;54.80
4314;DHT22;2170;48.794;9.182;2023-06-24T15:56:20;32.90;53.50
4314;DHT22;2170;48.794;9.182;2023-06-24T15:58:52;32.60;53.40
4314;DHT22;2170;48.794;9.182;2023-06-24T16:01:21;33.30;52.70
4314;DHT22;2170;48.794;9.182;2023-06-24T16:03:54;33.00;52.40
4314;DHT22;2170;48.794;9.182;2023-06-24T16:06:24;33.10;52.90
4314;DHT22;2170;48.794;9.182;2023-06-24T16:08:53;33.10;52.60
4314;DHT22;2170;48.794;9.182;2023-06-24T16:11:31;33.30;52.20
4314;DHT22;2170;48.794;9.182;2023-06-24T16:14:24;32.10;53.40
4314;DHT22;2170;48.794;9.182;2023-06-24T16:16:56;31.00;54.30
4314;DHT22;2170;48.794;9.182;2023-06-24T16:19:26;31.40;54.10
4314;DHT22;2170;48.794;9.182;2023-06-24T16:22:02;31.40;54.60
4314;DHT22;2170;48.794;9.182;2023-06-24T16:24:52;31.20;54.30
4314;DHT22;2170;48.794;9.182;2023-06-24T16:27:28;31.90;54.20
4314;DHT22;2170;48.794;9.182;2023-06-24T16:30:17;32.30;53.40
4314;DHT22;2170;48.794;9.182;2023-06-24T16:32:58;32.60;52.70
4314;DHT22;2170;48.794;9.182;2023-06-24T16:35:43;32.80;52.40
4314;DHT22;2170;48.794;9.182;2023-06-24T16:38:20;32.90;52.00
4314;DHT22;2170;48.794;9.182;2023-06-24T16:41:00;32.70;52.70
4314;DHT22;2170;48.794;9.182;2023-06-24T16:43:37;32.30;52.90
4314;DHT22;2170;48.794;9.182;2023-06-24T16:46:22;32.40;53.10
4314;DHT22;2170;48.794;9.182;2023-06-24T16:48:56;32.30;53.70
4314;DHT22;2170;48.794;9.182;2023-06-24T16:51:27;32.10;53.20
4314;DHT22;2170;48.794;9.182;2023-06-24T16:54:07;31.60;54.10
4314;DHT22;2170;48.794;9.182;2023-06-24T16:56:35;31.20;53.80
4314;DHT22;2170;48.794;9.182;2023-06-24T16:59:15;31.10;54.60
4314;DHT22;2170;48.794;9.182;2023-06-24T17:01:56;31.00;54.20
4314;DHT22;2170;48.794;9.182;2023-06-24T17:04:34;31.20;54.70
4314;DHT22;2170;48.794;9.182;2023-06-24T17:07:04;31.50;54.20